Adaton, Mississippi
Current Conditions -  °F | °C
As of 7:15 PM on Tuesday 25 Nov 2014 (Local Time) from KSTF Reporting Station
Clear Clear  
Wind Chill: 43°   Ceiling: Unl
Heat Index: 43°   Visibility: NA
Dew Point: 32°   Wind: 3mph
Humidity: 66%   Direction: 310°NW
Pressure: 30.18"   Gusts: NA
Location:  33.4256°N, 88.8438°W
Report Text: KSTF 260115Z AUTO 31003KT CLR 06/00 A3018 RMK AO2 PWINO
Loading
Personal Weather Stations






























Interactive Weather Map New forecast layout! Learn more

10-Day Weather Forecast

Advertisements
Track Severe Weather on mobile